createdAt,value
2023-08-12T00:00:15.034Z,0.90
2023-08-12T00:02:16.853Z,0.90
2023-08-12T00:04:18.547Z,1.00
2023-08-12T00:06:20.192Z,1.00
2023-08-12T00:08:21.789Z,0.90
2023-08-12T00:10:23.577Z,0.93
2023-08-12T00:12:25.261Z,0.70
2023-08-12T00:14:26.830Z,0.80
2023-08-12T00:16:28.840Z,0.80
2023-08-12T00:18:30.523Z,0.70
2023-08-12T00:20:32.178Z,0.90
2023-08-12T00:22:33.902Z,0.85
2023-08-12T00:24:35.544Z,0.85
2023-08-12T00:26:37.241Z,0.75
2023-08-12T00:28:38.969Z,0.80
2023-08-12T00:30:40.552Z,0.80
2023-08-12T00:32:42.194Z,0.80
2023-08-12T00:34:43.855Z,0.75
2023-08-12T00:36:45.545Z,0.82
2023-08-12T00:38:47.199Z,0.60
2023-08-12T00:40:49.953Z,0.68
2023-08-12T00:42:51.536Z,0.80
2023-08-12T00:44:53.128Z,0.60
2023-08-12T00:46:56.129Z,0.75
2023-08-12T00:48:58.187Z,0.77
2023-08-12T00:51:00.351Z,0.68
2023-08-12T00:53:02.064Z,0.60
2023-08-12T00:55:04.216Z,0.60
2023-08-12T00:57:07.100Z,0.52
2023-08-12T00:59:10.225Z,0.60
2023-08-12T01:01:13.184Z,0.60
2023-08-12T01:03:14.997Z,0.70
2023-08-12T01:05:17.192Z,0.60
2023-08-12T01:07:18.974Z,0.50
2023-08-12T01:09:20.703Z,0.60
2023-08-12T01:11:29.005Z,0.60
2023-08-12T01:14:05.654Z,0.57
2023-08-12T01:16:10.283Z,0.70
2023-08-12T01:18:15.925Z,0.60
2023-08-12T01:20:18.010Z,0.65
2023-08-12T01:22:22.654Z,0.60
2023-08-12T01:24:25.958Z,0.50
2023-08-12T01:26:27.593Z,0.60
2023-08-12T01:28:29.257Z,0.70
2023-08-12T01:30:33.286Z,0.40
2023-08-12T01:32:41.146Z,0.50
2023-08-12T01:35:01.540Z,0.50
2023-08-12T01:37:06.365Z,0.50
2023-08-12T01:39:11.061Z,0.50
2023-08-12T01:41:14.490Z,0.60
2023-08-12T01:43:16.544Z,0.65
2023-08-12T01:45:19.527Z,0.40
2023-08-12T01:47:21.120Z,0.50
2023-08-12T01:49:25.416Z,0.40
2023-08-12T01:51:27.570Z,0.47
2023-08-12T01:53:29.492Z,0.52
2023-08-12T01:55:31.088Z,0.40
2023-08-12T01:57:32.861Z,0.50
2023-08-12T01:59:35.392Z,0.40
2023-08-12T02:01:37.190Z,0.50
2023-08-12T02:03:40.130Z,0.40
2023-08-12T02:05:42.439Z,0.50
2023-08-12T02:07:44.365Z,0.50
2023-08-12T02:09:46.130Z,0.40
2023-08-12T02:11:47.725Z,0.50
2023-08-12T02:13:49.380Z,0.50
2023-08-12T02:15:51.011Z,0.40
2023-08-12T02:17:52.641Z,0.52
2023-08-12T02:19:54.468Z,0.60
2023-08-12T02:21:56.229Z,0.50
2023-08-12T02:23:58.237Z,0.60
2023-08-12T02:25:59.952Z,0.50
2023-08-12T02:28:01.609Z,0.50
2023-08-12T02:30:04.094Z,0.60
2023-08-12T02:32:05.904Z,0.47
2023-08-12T02:34:07.866Z,0.50
2023-08-12T02:36:09.745Z,0.50
2023-08-12T02:38:11.346Z,0.40
2023-08-12T02:40:13.268Z,0.50
2023-08-12T02:42:15.035Z,0.40
2023-08-12T02:44:16.697Z,0.40
2023-08-12T02:46:19.347Z,0.30
2023-08-12T02:48:20.955Z,0.40
2023-08-12T02:50:22.528Z,0.55
2023-08-12T02:52:24.234Z,0.40
2023-08-12T02:54:25.989Z,0.50
2023-08-12T02:56:27.598Z,0.40
2023-08-12T02:58:29.185Z,0.40
2023-08-12T03:00:31.104Z,0.55
2023-08-12T03:02:33.240Z,0.38
2023-08-12T03:04:35.243Z,0.40
2023-08-12T03:06:36.814Z,0.30
2023-08-12T03:08:38.627Z,0.28
2023-08-12T03:10:40.223Z,0.30
2023-08-12T03:12:41.961Z,0.50
2023-08-12T03:14:43.554Z,0.40
2023-08-12T03:16:45.407Z,0.45
2023-08-12T03:18:47.019Z,0.40
2023-08-12T03:20:48.825Z,0.32
2023-08-12T03:22:50.516Z,0.40
2023-08-12T03:24:52.347Z,0.17
2023-08-12T03:26:54.016Z,0.50
2023-08-12T03:28:55.626Z,0.40
2023-08-12T03:30:57.262Z,0.38
2023-08-12T03:32:59.063Z,0.35
2023-08-12T03:35:00.890Z,0.32
2023-08-12T03:37:02.824Z,0.40
2023-08-12T03:39:04.494Z,0.40
2023-08-12T03:41:07.151Z,0.30
2023-08-12T03:43:09.319Z,0.30
2023-08-12T03:45:11.396Z,0.20
2023-08-12T03:47:13.490Z,0.45
2023-08-12T03:49:15.418Z,0.30
2023-08-12T03:51:17.049Z,0.30
2023-08-12T03:53:18.857Z,0.35
2023-08-12T03:55:20.464Z,0.30
2023-08-12T03:57:22.136Z,0.30
2023-08-12T03:59:23.843Z,0.30
2023-08-12T04:01:25.606Z,0.38
2023-08-12T04:03:27.604Z,0.30
2023-08-12T04:05:29.306Z,0.30
2023-08-12T04:07:32.116Z,0.30
2023-08-12T04:09:33.700Z,0.20
2023-08-12T04:11:35.418Z,0.30
2023-08-12T04:13:36.989Z,0.30
2023-08-12T04:15:38.603Z,0.30
2023-08-12T04:17:42.497Z,0.30
2023-08-12T04:19:44.883Z,0.40
2023-08-12T04:21:47.835Z,0.40
2023-08-12T04:23:49.462Z,0.30
2023-08-12T04:25:52.164Z,0.30
2023-08-12T04:27:54.150Z,0.20
2023-08-12T04:29:56.063Z,0.17
2023-08-12T04:31:57.806Z,0.20
2023-08-12T04:33:59.389Z,0.20
2023-08-12T04:36:00.998Z,0.30
2023-08-12T04:38:03.106Z,0.30
2023-08-12T04:40:06.160Z,0.30
2023-08-12T04:42:07.918Z,0.20
2023-08-12T04:44:09.523Z,0.20
2023-08-12T04:46:11.120Z,0.30
2023-08-12T04:48:12.716Z,0.40
2023-08-12T04:50:14.333Z,0.10
2023-08-12T04:52:16.036Z,0.30
2023-08-12T04:54:17.681Z,0.20
2023-08-12T04:56:19.411Z,0.13
2023-08-12T04:58:21.028Z,0.30
2023-08-12T05:00:23.280Z,0.20
2023-08-12T05:02:25.212Z,0.10
2023-08-12T05:04:27.203Z,0.20
2023-08-12T05:06:29.037Z,0.40
2023-08-12T05:08:30.636Z,0.20
2023-08-12T05:10:32.429Z,0.20
2023-08-12T05:12:34.066Z,0.20
2023-08-12T05:14:35.632Z,0.17
2023-08-12T05:16:37.381Z,0.20
2023-08-12T05:18:39.044Z,0.15
2023-08-12T05:20:44.706Z,0.30
2023-08-12T05:22:48.678Z,0.20
2023-08-12T05:24:50.275Z,0.20
2023-08-12T05:26:52.001Z,0.10
2023-08-12T05:28:53.833Z,0.20
2023-08-12T05:30:56.600Z,0.10
2023-08-12T05:32:58.274Z,0.22
2023-08-12T05:35:00.190Z,0.22
2023-08-12T05:37:01.818Z,0.10
2023-08-12T05:39:04.472Z,0.28
2023-08-12T05:41:08.359Z,0.20
2023-08-12T05:43:10.009Z,0.30
2023-08-12T05:45:12.066Z,0.20
2023-08-12T05:47:13.733Z,0.20
2023-08-12T05:49:15.499Z,0.17
2023-08-12T05:51:17.190Z,0.10
2023-08-12T05:53:18.785Z,0.10
2023-08-12T05:55:20.429Z,0.17
2023-08-12T05:57:21.976Z,0.20
2023-08-12T05:59:23.563Z,0.10
2023-08-12T06:01:25.736Z,0.20
2023-08-12T06:03:27.488Z,0.28
2023-08-12T06:05:29.100Z,0.10
2023-08-12T06:07:30.802Z,0.10
2023-08-12T06:09:32.377Z,0.15
2023-08-12T06:11:34.074Z,0.10
2023-08-12T06:13:35.781Z,0.10
2023-08-12T06:15:37.486Z,0.10
2023-08-12T06:17:39.114Z,0.15
2023-08-12T06:19:41.352Z,0.10
2023-08-12T06:21:43.015Z,0.10
2023-08-12T06:23:44.619Z,0.10
2023-08-12T06:25:46.236Z,0.20
2023-08-12T06:27:48.303Z,0.13
2023-08-12T06:29:49.902Z,0.10
2023-08-12T06:31:51.521Z,0.10
2023-08-12T06:33:53.193Z,0.20
2023-08-12T06:35:54.918Z,0.17
2023-08-12T06:37:56.508Z,0.10
2023-08-12T06:39:58.061Z,0.20
2023-08-12T06:42:00.167Z,0.15
2023-08-12T06:44:02.168Z,0.15
2023-08-12T06:46:03.907Z,0.10
2023-08-12T06:48:05.990Z,0.10
2023-08-12T06:50:08.878Z,0.10
2023-08-12T06:52:10.801Z,0.20
2023-08-12T06:54:12.946Z,0.20
2023-08-12T06:56:14.501Z,0.10
2023-08-12T06:58:16.193Z,0.10
2023-08-12T07:00:17.990Z,0.15
2023-08-12T07:02:19.582Z,0.10
2023-08-12T07:04:21.162Z,0.10
2023-08-12T07:06:23.681Z,0.10
2023-08-12T07:08:25.521Z,0.10
2023-08-12T07:10:29.643Z,0.00
2023-08-12T07:12:31.533Z,0.00
2023-08-12T07:14:33.184Z,0.10
2023-08-12T07:16:34.822Z,0.10
2023-08-12T07:18:36.419Z,0.10
2023-08-12T07:20:39.022Z,0.10
2023-08-12T07:22:40.674Z,0.05
2023-08-12T07:24:42.298Z,0.10
2023-08-12T07:26:43.959Z,0.10
2023-08-12T07:28:45.639Z,0.10
2023-08-12T07:30:48.798Z,0.10
2023-08-12T07:32:50.626Z,0.10
2023-08-12T07:34:52.413Z,0.20
2023-08-12T07:36:53.980Z,0.20
2023-08-12T07:38:55.722Z,0.10
2023-08-12T07:40:57.413Z,0.20
2023-08-12T07:42:59.016Z,0.10
2023-08-12T07:45:00.671Z,0.13
2023-08-12T07:47:02.287Z,0.10
2023-08-12T07:49:04.123Z,0.10
2023-08-12T07:51:05.795Z,0.10
2023-08-12T07:53:07.447Z,0.10
2023-08-12T07:55:09.332Z,0.03
2023-08-12T07:57:10.883Z,0.10
2023-08-12T07:59:12.468Z,0.10
2023-08-12T08:01:14.942Z,0.10
2023-08-12T08:03:16.574Z,0.00
2023-08-12T08:05:18.219Z,0.10
2023-08-12T08:07:19.802Z,0.10
2023-08-12T08:09:21.365Z,0.10
2023-08-12T08:11:25.219Z,0.10
2023-08-12T08:13:27.341Z,0.10
2023-08-12T08:15:29.160Z,0.00
2023-08-12T08:17:30.954Z,0.03
2023-08-12T08:19:32.806Z,0.10
2023-08-12T08:21:34.580Z,0.10
2023-08-12T08:23:36.197Z,0.00
2023-08-12T08:25:38.125Z,0.00
2023-08-12T08:27:41.590Z,0.20
2023-08-12T08:29:45.286Z,0.20
2023-08-12T08:31:46.829Z,0.10
2023-08-12T08:33:48.403Z,0.10
2023-08-12T08:35:50.116Z,0.10
2023-08-12T08:37:51.743Z,0.10
2023-08-12T08:39:53.305Z,0.10
2023-08-12T08:41:56.291Z,0.10
2023-08-12T08:44:03.763Z,0.10
2023-08-12T08:46:07.173Z,0.00
2023-08-12T08:48:10.219Z,0.10
2023-08-12T08:50:12.106Z,0.10
2023-08-12T08:52:14.305Z,0.20
2023-08-12T08:54:16.407Z,0.10
2023-08-12T08:56:18.694Z,0.20
2023-08-12T08:58:21.590Z,0.10
2023-08-12T09:00:25.625Z,0.10
2023-08-12T09:02:27.929Z,0.10
2023-08-12T09:04:30.668Z,0.10
2023-08-12T09:06:34.425Z,0.15
2023-08-12T09:08:37.552Z,0.20
2023-08-12T09:10:43.397Z,0.10
2023-08-12T09:12:47.785Z,0.15
2023-08-12T09:14:49.843Z,0.10
2023-08-12T09:16:51.442Z,0.30
2023-08-12T09:18:59.574Z,0.20
2023-08-12T09:21:01.929Z,0.10
2023-08-12T09:23:04.062Z,0.10
2023-08-12T09:25:06.302Z,0.10
2023-08-12T09:27:07.955Z,0.10
2023-08-12T09:29:09.728Z,0.10
2023-08-12T09:31:31.731Z,0.10
2023-08-12T09:33:33.505Z,0.10
2023-08-12T09:35:39.727Z,0.10
2023-08-12T09:37:42.664Z,0.10
2023-08-12T09:39:44.631Z,0.20
2023-08-12T09:41:46.300Z,0.10
2023-08-12T09:43:47.961Z,0.22
2023-08-12T09:45:49.613Z,0.20
2023-08-12T09:47:51.722Z,0.15
2023-08-12T09:49:53.445Z,0.13
2023-08-12T09:51:55.207Z,0.10
2023-08-12T09:53:56.938Z,0.20
2023-08-12T09:56:08.700Z,0.10
2023-08-12T09:58:12.701Z,0.10
2023-08-12T10:00:18.057Z,0.10
2023-08-12T10:02:21.347Z,0.10
2023-08-12T10:04:27.941Z,0.20
2023-08-12T10:06:30.001Z,0.17
2023-08-12T10:08:33.563Z,0.20
2023-08-12T10:10:37.040Z,0.20
2023-08-12T10:12:38.924Z,0.17
2023-08-12T10:14:40.891Z,0.17
2023-08-12T10:16:47.218Z,0.10
2023-08-12T10:18:49.042Z,0.10
2023-08-12T10:20:52.441Z,0.20
2023-08-12T10:22:54.718Z,0.13
2023-08-12T10:25:00.417Z,0.10
2023-08-12T10:27:02.347Z,0.20
2023-08-12T10:29:04.148Z,0.10
2023-08-12T10:31:07.207Z,0.13
2023-08-12T10:33:10.938Z,0.13
2023-08-12T10:35:13.620Z,0.10
2023-08-12T10:37:15.742Z,0.10
2023-08-12T10:39:17.587Z,0.20
2023-08-12T10:41:24.478Z,0.10
2023-08-12T10:43:27.506Z,0.10
2023-08-12T10:45:48.091Z,0.13
2023-08-12T10:47:50.601Z,0.20
2023-08-12T10:49:54.330Z,0.10
2023-08-12T10:51:56.018Z,0.10
2023-08-12T10:54:31.634Z,0.30
2023-08-12T10:57:02.383Z,0.17
2023-08-12T10:59:04.096Z,0.15
2023-08-12T11:01:14.263Z,0.15
2023-08-12T11:03:15.992Z,0.10
2023-08-12T11:05:20.110Z,0.17
2023-08-12T11:07:30.236Z,0.17
2023-08-12T11:09:31.909Z,0.10
2023-08-12T11:11:35.185Z,0.13
2023-08-12T11:13:48.568Z,0.10
2023-08-12T11:15:51.173Z,0.10
2023-08-12T11:17:53.002Z,0.10
2023-08-12T11:19:56.086Z,0.30
2023-08-12T11:21:58.772Z,0.20
2023-08-12T11:24:00.852Z,0.13
2023-08-12T11:26:03.890Z,0.10
2023-08-12T11:28:06.967Z,0.20
2023-08-12T11:30:11.543Z,0.20
2023-08-12T11:32:13.522Z,0.15
2023-08-12T11:34:16.705Z,0.20
2023-08-12T11:36:18.288Z,0.10
2023-08-12T11:38:19.959Z,0.20
2023-08-12T11:40:21.601Z,0.13
2023-08-12T11:42:23.208Z,0.13
2023-08-12T11:44:24.936Z,0.17
2023-08-12T11:46:26.735Z,0.15
2023-08-12T11:48:28.857Z,0.15
2023-08-12T11:50:30.693Z,0.20
2023-08-12T11:52:33.376Z,0.20
2023-08-12T11:54:35.487Z,0.20
2023-08-12T11:56:38.005Z,0.10
2023-08-12T11:58:51.179Z,0.10
2023-08-12T12:00:55.061Z,0.30
2023-08-12T12:02:57.391Z,0.17
2023-08-12T12:04:59.130Z,0.10
2023-08-12T12:07:01.300Z,0.20
2023-08-12T12:09:06.579Z,0.15
2023-08-12T12:11:08.343Z,0.20
2023-08-12T12:13:12.279Z,0.10
2023-08-12T12:15:16.366Z,0.20
2023-08-12T12:17:17.977Z,0.22
2023-08-12T12:19:21.259Z,0.28
2023-08-12T12:21:23.780Z,0.20
2023-08-12T12:23:30.037Z,0.20
2023-08-12T12:25:31.778Z,0.10
2023-08-12T12:27:34.209Z,0.20
2023-08-12T12:29:36.015Z,0.10
2023-08-12T12:31:37.643Z,0.20
2023-08-12T12:33:39.320Z,0.10
2023-08-12T12:35:51.435Z,0.13
2023-08-12T12:37:57.331Z,0.10
2023-08-12T12:39:58.917Z,0.20
2023-08-12T12:42:00.779Z,0.10
2023-08-12T12:44:02.875Z,0.20
2023-08-12T12:46:05.634Z,0.10
2023-08-12T12:48:07.565Z,0.30
2023-08-12T12:50:09.300Z,0.20
2023-08-12T12:52:11.239Z,0.20
2023-08-12T12:54:13.133Z,0.28
2023-08-12T12:56:15.183Z,0.13
2023-08-12T12:58:17.516Z,0.17
2023-08-12T13:00:19.198Z,0.17
2023-08-12T13:02:20.803Z,0.20
2023-08-12T13:04:22.496Z,0.10
2023-08-12T13:06:24.131Z,0.10
2023-08-12T13:08:26.211Z,0.20
2023-08-12T13:10:27.820Z,0.20
2023-08-12T13:12:29.485Z,0.30
2023-08-12T13:14:31.491Z,0.10
2023-08-12T13:16:33.116Z,0.20
2023-08-12T13:18:35.155Z,0.17
2023-08-12T13:20:37.426Z,0.20
2023-08-12T13:22:39.004Z,0.20
2023-08-12T13:24:40.570Z,0.20
2023-08-12T13:26:42.737Z,0.30
2023-08-12T13:28:45.018Z,0.20
2023-08-12T13:30:46.839Z,0.20
2023-08-12T13:32:48.580Z,0.20
2023-08-12T13:34:50.208Z,0.15
2023-08-12T13:36:51.811Z,0.20
2023-08-12T13:38:53.378Z,0.20
2023-08-12T13:40:55.108Z,0.20
2023-08-12T13:42:56.933Z,0.20
2023-08-12T13:44:59.784Z,0.15
2023-08-12T13:47:02.601Z,0.20
2023-08-12T13:49:04.455Z,0.10
2023-08-12T13:51:07.342Z,0.10
2023-08-12T13:53:08.905Z,0.20
2023-08-12T13:55:10.543Z,0.20
2023-08-12T13:57:12.898Z,0.30
2023-08-12T13:59:14.528Z,0.10
2023-08-12T14:01:16.373Z,0.10
2023-08-12T14:03:18.083Z,0.20
2023-08-12T14:05:19.861Z,0.20
2023-08-12T14:07:21.586Z,0.10
2023-08-12T14:09:23.223Z,0.10
2023-08-12T14:11:24.916Z,0.30
2023-08-12T14:13:26.788Z,0.20
2023-08-12T14:15:28.517Z,0.20
2023-08-12T14:17:30.100Z,0.30
2023-08-12T14:19:31.847Z,0.20
2023-08-12T14:21:33.530Z,0.20
2023-08-12T14:23:35.106Z,0.10
2023-08-12T14:25:36.801Z,0.20
2023-08-12T14:27:38.666Z,0.20
2023-08-12T14:29:40.256Z,0.30
2023-08-12T14:31:41.871Z,0.25
2023-08-12T14:33:44.409Z,0.22
2023-08-12T14:35:46.079Z,0.30
2023-08-12T14:37:47.658Z,0.30
2023-08-12T14:39:49.337Z,0.20
2023-08-12T14:41:50.938Z,0.20
2023-08-12T14:43:52.842Z,0.20
2023-08-12T14:45:54.443Z,0.20
2023-08-12T14:47:56.108Z,0.20
2023-08-12T14:49:57.833Z,0.20
2023-08-12T14:51:59.412Z,0.30
2023-08-12T14:54:00.996Z,0.30
2023-08-12T14:56:02.767Z,0.30
2023-08-12T14:58:04.679Z,0.30
2023-08-12T15:00:08.155Z,0.20
2023-08-12T15:02:09.852Z,0.20
2023-08-12T15:04:11.449Z,0.30
2023-08-12T15:06:14.876Z,0.20
2023-08-12T15:08:16.416Z,0.22
2023-08-12T15:10:18.162Z,0.20
2023-08-12T15:12:19.815Z,0.28
2023-08-12T15:14:21.430Z,0.20
2023-08-12T15:16:23.164Z,0.30
2023-08-12T15:18:25.450Z,0.13
2023-08-12T15:20:27.017Z,0.32
2023-08-12T15:22:29.065Z,0.20
2023-08-12T15:24:31.331Z,0.30
2023-08-12T15:26:33.165Z,0.40
2023-08-12T15:28:34.810Z,0.20
2023-08-12T15:30:37.383Z,0.30
2023-08-12T15:32:42.715Z,0.30
2023-08-12T15:34:44.800Z,0.35
2023-08-12T15:36:46.561Z,0.30
2023-08-12T15:38:48.826Z,0.30
2023-08-12T15:40:50.485Z,0.22
2023-08-12T15:42:52.120Z,0.20
2023-08-12T15:44:53.716Z,0.10
2023-08-12T15:46:55.490Z,0.25
2023-08-12T15:48:57.084Z,0.30
2023-08-12T15:50:58.775Z,0.30
2023-08-12T15:53:00.353Z,0.30
2023-08-12T15:55:03.103Z,0.20
2023-08-12T15:57:05.489Z,0.25
2023-08-12T15:59:07.771Z,0.22
2023-08-12T16:01:09.360Z,0.20
2023-08-12T16:03:11.556Z,0.30
2023-08-12T16:05:13.128Z,0.22
2023-08-12T16:07:16.195Z,0.38
2023-08-12T16:09:19.625Z,0.38
2023-08-12T16:11:21.395Z,0.20
2023-08-12T16:13:23.089Z,0.30
2023-08-12T16:15:24.685Z,0.40
2023-08-12T16:17:26.756Z,0.20
2023-08-12T16:19:30.232Z,0.20
2023-08-12T16:21:33.032Z,0.30
2023-08-12T16:23:34.668Z,0.25
2023-08-12T16:25:36.251Z,0.20
2023-08-12T16:27:37.958Z,0.30
2023-08-12T16:29:39.553Z,0.30
2023-08-12T16:31:41.243Z,0.20
2023-08-12T16:33:42.944Z,0.30
2023-08-12T16:35:44.685Z,0.25
2023-08-12T16:37:46.428Z,0.28
2023-08-12T16:39:48.087Z,0.20
2023-08-12T16:41:49.700Z,0.35
2023-08-12T16:43:51.265Z,0.22
2023-08-12T16:45:52.815Z,0.30
2023-08-12T16:47:54.459Z,0.22
2023-08-12T16:49:56.224Z,0.30
2023-08-12T16:51:57.876Z,0.30
2023-08-12T16:53:59.508Z,0.10
2023-08-12T16:56:01.105Z,0.20
2023-08-12T16:58:02.890Z,0.20
2023-08-12T17:00:06.233Z,0.25
2023-08-12T17:02:07.983Z,0.20
2023-08-12T17:04:12.725Z,0.32
2023-08-12T17:06:14.432Z,0.20
2023-08-12T17:08:16.026Z,0.30
2023-08-12T17:10:17.748Z,0.28
2023-08-12T17:12:19.389Z,0.22
2023-08-12T17:14:21.019Z,0.30
2023-08-12T17:16:22.817Z,0.30
2023-08-12T17:18:24.490Z,0.30
2023-08-12T17:20:26.831Z,0.20
2023-08-12T17:22:28.512Z,0.30
2023-08-12T17:24:30.134Z,0.32
2023-08-12T17:26:31.775Z,0.30
2023-08-12T17:28:33.363Z,0.40
2023-08-12T17:30:36.914Z,0.22
2023-08-12T17:32:38.618Z,0.25
2023-08-12T17:34:40.302Z,0.30
2023-08-12T17:36:41.925Z,0.10
2023-08-12T17:38:44.097Z,0.25
2023-08-12T17:40:45.770Z,0.30
2023-08-12T17:42:47.621Z,0.30
2023-08-12T17:44:49.216Z,0.20
2023-08-12T17:46:50.920Z,0.30
2023-08-12T17:48:52.546Z,0.20
2023-08-12T17:50:54.138Z,0.20
2023-08-12T17:52:55.941Z,0.30
2023-08-12T17:54:57.798Z,0.20
2023-08-12T17:56:59.476Z,0.20
2023-08-12T17:59:01.482Z,0.20
2023-08-12T18:01:03.171Z,0.30
2023-08-12T18:03:05.073Z,0.30
2023-08-12T18:05:07.638Z,0.20
2023-08-12T18:07:09.218Z,0.40
2023-08-12T18:09:10.864Z,0.20
2023-08-12T18:11:12.439Z,0.40
2023-08-12T18:13:14.033Z,0.22
2023-08-12T18:15:15.920Z,0.30
2023-08-12T18:17:17.577Z,0.30
2023-08-12T18:19:19.117Z,0.20
2023-08-12T18:21:20.736Z,0.20
2023-08-12T18:23:22.376Z,0.40
2023-08-12T18:25:25.314Z,0.20
2023-08-12T18:27:27.083Z,0.40
2023-08-12T18:29:28.685Z,0.50
2023-08-12T18:31:30.271Z,0.40
2023-08-12T18:33:31.982Z,0.20
2023-08-12T18:35:35.000Z,0.30
2023-08-12T18:37:36.825Z,0.40
2023-08-12T18:39:38.467Z,0.25
2023-08-12T18:41:40.392Z,0.30
2023-08-12T18:43:42.070Z,0.20
2023-08-12T18:45:43.788Z,0.40
2023-08-12T18:47:45.495Z,0.28
2023-08-12T18:49:47.198Z,0.30
2023-08-12T18:51:48.805Z,0.30
2023-08-12T18:53:50.616Z,0.30
2023-08-12T18:55:52.573Z,0.20
2023-08-12T18:57:54.240Z,0.30
2023-08-12T18:59:55.908Z,0.20
2023-08-12T19:01:58.412Z,0.20
2023-08-12T19:04:00.042Z,0.30
2023-08-12T19:06:01.728Z,0.32
2023-08-12T19:08:03.770Z,0.20
2023-08-12T19:10:06.504Z,0.30
2023-08-12T19:12:10.574Z,0.20
2023-08-12T19:14:13.789Z,0.32
2023-08-12T19:16:15.472Z,0.30
2023-08-12T19:18:17.477Z,0.20
2023-08-12T19:20:19.146Z,0.20
2023-08-12T19:22:20.907Z,0.30
2023-08-12T19:24:22.707Z,0.38
2023-08-12T19:26:24.437Z,0.35
2023-08-12T19:28:26.248Z,0.30
2023-08-12T19:30:27.875Z,0.30
2023-08-12T19:32:29.569Z,0.20
2023-08-12T19:34:33.327Z,0.30
2023-08-12T19:36:35.952Z,0.30
2023-08-12T19:38:37.700Z,0.20
2023-08-12T19:40:39.678Z,0.30
2023-08-12T19:42:41.460Z,0.30
2023-08-12T19:44:43.163Z,0.10
2023-08-12T19:46:45.027Z,0.20
2023-08-12T19:48:46.657Z,0.20
2023-08-12T19:50:50.773Z,0.30
2023-08-12T19:52:52.516Z,0.20
2023-08-12T19:54:54.213Z,0.30
2023-08-12T19:56:56.030Z,0.20
2023-08-12T19:58:57.741Z,0.28
2023-08-12T20:00:59.389Z,0.20
2023-08-12T20:03:01.015Z,0.20
2023-08-12T20:05:02.818Z,0.25
2023-08-12T20:07:04.548Z,0.30
2023-08-12T20:09:07.469Z,0.30
2023-08-12T20:11:10.534Z,0.35
2023-08-12T20:13:12.124Z,0.30
2023-08-12T20:15:14.086Z,0.35
2023-08-12T20:17:15.758Z,0.20
2023-08-12T20:19:17.368Z,0.20
2023-08-12T20:21:19.099Z,0.20
2023-08-12T20:23:21.810Z,0.28
2023-08-12T20:25:23.454Z,0.30
2023-08-12T20:27:25.122Z,0.30
2023-08-12T20:29:26.661Z,0.30
2023-08-12T20:31:28.322Z,0.30
2023-08-12T20:33:30.065Z,0.20
2023-08-12T20:35:32.214Z,0.30
2023-08-12T20:37:34.996Z,0.10
2023-08-12T20:39:37.066Z,0.20
2023-08-12T20:41:38.825Z,0.22
2023-08-12T20:43:40.479Z,0.30
2023-08-12T20:45:42.050Z,0.30
2023-08-12T20:47:43.914Z,0.30
2023-08-12T20:49:45.904Z,0.20
2023-08-12T20:51:47.475Z,0.30
2023-08-12T20:53:49.119Z,0.20
2023-08-12T20:55:51.699Z,0.40
2023-08-12T20:57:53.328Z,0.20
2023-08-12T20:59:54.877Z,0.20
2023-08-12T21:01:56.583Z,0.30
2023-08-12T21:03:58.456Z,0.30
2023-08-12T21:06:00.094Z,0.30
2023-08-12T21:08:01.772Z,0.30
2023-08-12T21:10:03.683Z,0.30
2023-08-12T21:12:06.909Z,0.35
2023-08-12T21:14:08.524Z,0.22
2023-08-12T21:16:10.255Z,0.30
2023-08-12T21:18:12.267Z,0.20
2023-08-12T21:20:13.972Z,0.22
2023-08-12T21:22:15.734Z,0.20
2023-08-12T21:24:17.690Z,0.30
2023-08-12T21:26:19.282Z,0.20
2023-08-12T21:28:20.892Z,0.35
2023-08-12T21:30:22.746Z,0.35
2023-08-12T21:32:24.460Z,0.25
2023-08-12T21:34:26.000Z,0.28
2023-08-12T21:36:27.831Z,0.20
2023-08-12T21:38:29.485Z,0.30
2023-08-12T21:40:31.181Z,0.20
2023-08-12T21:42:32.819Z,0.20
2023-08-12T21:44:34.657Z,0.30
2023-08-12T21:46:36.440Z,0.20
2023-08-12T21:48:38.169Z,0.25
2023-08-12T21:50:39.714Z,0.30
2023-08-12T21:52:41.349Z,0.28
2023-08-12T21:54:44.211Z,0.40
2023-08-12T21:56:45.781Z,0.28
2023-08-12T21:58:47.949Z,0.30
2023-08-12T22:00:49.609Z,0.30
2023-08-12T22:02:51.398Z,0.40
2023-08-12T22:04:53.314Z,0.35
2023-08-12T22:06:54.959Z,0.30
2023-08-12T22:08:56.873Z,0.30
2023-08-12T22:10:58.606Z,0.38
2023-08-12T22:13:00.247Z,0.30
2023-08-12T22:15:01.878Z,0.20
2023-08-12T22:17:04.218Z,0.30
2023-08-12T22:19:05.951Z,0.30
2023-08-12T22:21:07.524Z,0.13
2023-08-12T22:23:09.068Z,0.20
2023-08-12T22:25:10.761Z,0.28
2023-08-12T22:27:12.412Z,0.30
2023-08-12T22:29:15.337Z,0.20
2023-08-12T22:31:17.135Z,0.20
2023-08-12T22:33:18.950Z,0.20
2023-08-12T22:35:20.844Z,0.30
2023-08-12T22:37:22.544Z,0.20
2023-08-12T22:39:24.523Z,0.40
2023-08-12T22:41:26.140Z,0.40
2023-08-12T22:43:27.818Z,0.30
2023-08-12T22:45:29.552Z,0.20
2023-08-12T22:47:31.140Z,0.40
2023-08-12T22:49:32.850Z,0.40
2023-08-12T22:51:34.400Z,0.50
2023-08-12T22:53:36.227Z,0.30
2023-08-12T22:55:37.927Z,0.25
2023-08-12T22:57:39.562Z,0.30
2023-08-12T22:59:41.251Z,0.30
2023-08-12T23:01:42.876Z,0.30
2023-08-12T23:03:44.683Z,0.30
2023-08-12T23:05:47.058Z,0.38
2023-08-12T23:07:48.702Z,0.40
2023-08-12T23:09:50.353Z,0.35
2023-08-12T23:11:52.050Z,0.30
2023-08-12T23:13:53.704Z,0.28
2023-08-12T23:15:55.403Z,0.20
2023-08-12T23:17:58.208Z,0.40
2023-08-12T23:19:59.959Z,0.22
2023-08-12T23:22:01.620Z,0.35
2023-08-12T23:24:03.662Z,0.30
2023-08-12T23:26:05.268Z,0.30
2023-08-12T23:28:06.832Z,0.20
2023-08-12T23:30:08.970Z,0.30
2023-08-12T23:32:10.982Z,0.40
2023-08-12T23:34:12.584Z,0.30
2023-08-12T23:38:20.934Z,0.43
2023-08-12T23:40:23.178Z,0.30
2023-08-12T23:42:24.795Z,0.40
2023-08-12T23:44:26.628Z,0.40
2023-08-12T23:46:28.763Z,0.40
2023-08-12T23:48:30.461Z,0.25
2023-08-12T23:50:32.134Z,0.50
2023-08-12T23:52:33.746Z,0.40
2023-08-12T23:54:35.376Z,0.30
2023-08-12T23:56:37.429Z,0.30
2023-08-12T23:58:39.102Z,0.30
